Time;durP1;ratioP1;P1;durP2;ratioP2;P2;SDS_P1;SDS_P2;PMS_P1;PMS_P2;Temp;Humidity;BMP_temperature;BMP_pressure;BME280_temperature;BME280_humidity;BME280_pressure;Samples;Min_cycle;Max_cycle;Signal;HPM_P1;HPM_P2
2022/03/30 00:02:24;;;;;;;;;;;16.80;78.90;;;;;;5269949;28;20276;-34
2022/03/30 00:04:56;;;;;;;;;;;16.80;79.10;;;;;;5269878;28;19924;-35
2022/03/30 00:07:31;;;;;;;;;;;16.80;79.10;;;;;;5270018;28;19970;-34
2022/03/30 00:10:02;;;;;;;;;;;16.80;79.10;;;;;;5269897;28;20258;-34
2022/03/30 00:12:34;;;;;;;;;;;16.80;79.50;;;;;;5270148;28;19928;-35
2022/03/30 00:15:05;;;;;;;;;;;16.80;79.80;;;;;;5270003;28;19947;-39
2022/03/30 00:17:36;;;;;;;;;;;16.80;79.90;;;;;;5269703;28;19963;-34
2022/03/30 00:20:07;;;;;;;;;;;16.80;80.10;;;;;;5269766;28;19924;-37
2022/03/30 00:22:40;;;;;;;;;;;16.80;80.30;;;;;;5269241;28;20301;-35
2022/03/30 00:25:12;;;;;;;;;;;16.80;80.30;;;;;;5269739;28;19925;-36
2022/03/30 00:27:43;;;;;;;;;;;16.80;80.50;;;;;;5269145;28;19924;-33
2022/03/30 00:30:15;;;;;;;;;;;16.80;80.90;;;;;;5269620;28;20385;-33
2022/03/30 00:32:46;;;;;;;;;;;16.70;81.20;;;;;;5269614;28;20049;-34
2022/03/30 00:35:17;;;;;;;;;;;16.70;81.20;;;;;;5269353;28;19924;-37
2022/03/30 00:37:48;;;;;;;;;;;16.70;81.50;;;;;;5269745;28;20392;-35
2022/03/30 00:40:19;;;;;;;;;;;16.70;81.40;;;;;;5269808;28;20278;-37
2022/03/30 00:42:49;;;;;;;;;;;16.70;81.20;;;;;;5269577;28;19974;-34
2022/03/30 00:45:21;;;;;;;;;;;16.70;81.40;;;;;;5269667;28;19924;-33
2022/03/30 00:47:52;;;;;;;;;;;16.70;81.50;;;;;;5269699;28;19971;-31
2022/03/30 00:50:23;;;;;;;;;;;16.70;81.30;;;;;;5267658;28;20328;-32
2022/03/30 00:52:56;;;;;;;;;;;16.70;81.40;;;;;;5268612;28;19963;-30
2022/03/30 00:55:27;;;;;;;;;;;16.70;81.30;;;;;;5269385;28;19924;-33
2022/03/30 00:57:58;;;;;;;;;;;16.70;81.60;;;;;;5268699;28;20274;-32
2022/03/30 01:00:29;;;;;;;;;;;16.70;81.60;;;;;;5268869;28;20242;-35
2022/03/30 01:03:00;;;;;;;;;;;16.70;81.20;;;;;;5269676;28;19969;-34
2022/03/30 01:05:31;;;;;;;;;;;16.70;81.40;;;;;;5269228;28;19955;-31
2022/03/30 01:08:02;;;;;;;;;;;16.70;81.50;;;;;;5269315;28;19982;-36
2022/03/30 01:10:33;;;;;;;;;;;16.70;81.20;;;;;;5272618;28;19951;-31
2022/03/30 01:13:05;;;;;;;;;;;16.70;81.20;;;;;;5273031;28;19924;-36
2022/03/30 01:15:36;;;;;;;;;;;16.70;81.50;;;;;;5272157;28;19947;-37
2022/03/30 01:18:07;;;;;;;;;;;16.70;82.00;;;;;;5272922;28;19924;-31
2022/03/30 01:20:38;;;;;;;;;;;16.70;81.50;;;;;;5273052;28;19924;-34
2022/03/30 01:23:09;;;;;;;;;;;16.70;82.00;;;;;;5272857;28;19935;-34
2022/03/30 01:25:40;;;;;;;;;;;16.70;81.90;;;;;;5273050;28;19994;-33
2022/03/30 01:28:11;;;;;;;;;;;16.70;81.90;;;;;;5272953;28;19963;-31
2022/03/30 01:33:32;;;;;;;;;;;16.60;82.20;;;;;;5271799;28;19931;-34
2022/03/30 01:36:03;;;;;;;;;;;16.60;82.30;;;;;;5272755;28;19935;-30
2022/03/30 01:38:34;;;;;;;;;;;16.60;82.20;;;;;;5272377;28;19924;-35
2022/03/30 01:41:07;;;;;;;;;;;16.60;82.80;;;;;;5272678;28;19930;-32
2022/03/30 01:43:38;;;;;;;;;;;16.60;82.70;;;;;;5272080;28;20376;-38
2022/03/30 01:46:09;;;;;;;;;;;16.60;82.70;;;;;;5272198;28;19978;-34
2022/03/30 01:48:40;;;;;;;;;;;16.60;82.80;;;;;;5272916;28;19924;-33
2022/03/30 01:51:11;;;;;;;;;;;16.60;82.90;;;;;;5272369;28;19924;-30
2022/03/30 01:53:42;;;;;;;;;;;16.60;82.70;;;;;;5271226;28;19931;-35
2022/03/30 01:56:13;;;;;;;;;;;16.60;83.20;;;;;;5271598;28;20415;-32
2022/03/30 01:58:44;;;;;;;;;;;16.60;84.00;;;;;;5253116;28;19973;-32
2022/03/30 02:01:15;;;;;;;;;;;16.60;83.80;;;;;;5271959;28;19928;-32
2022/03/30 02:03:46;;;;;;;;;;;16.60;83.70;;;;;;5272197;28;19977;-36
2022/03/30 02:06:17;;;;;;;;;;;16.60;83.50;;;;;;5272056;28;19928;-35
2022/03/30 02:08:48;;;;;;;;;;;16.60;83.70;;;;;;5271440;28;19931;-33
2022/03/30 02:11:19;;;;;;;;;;;16.60;84.10;;;;;;5271692;28;19947;-33
2022/03/30 02:13:50;;;;;;;;;;;16.60;83.70;;;;;;5272139;28;19924;-32
2022/03/30 02:16:21;;;;;;;;;;;16.60;84.00;;;;;;5271958;28;19931;-31
2022/03/30 02:18:51;;;;;;;;;;;16.60;83.80;;;;;;5271588;28;20278;-36
2022/03/30 02:21:24;;;;;;;;;;;16.60;83.30;;;;;;5271287;28;19931;-32
2022/03/30 02:23:54;;;;;;;;;;;16.60;83.20;;;;;;5271731;28;19924;-33
2022/03/30 02:26:27;;;;;;;;;;;16.60;83.60;;;;;;5270535;28;19924;-37
2022/03/30 02:28:58;;;;;;;;;;;16.60;82.60;;;;;;5271606;28;20319;-31
2022/03/30 02:31:29;;;;;;;;;;;16.60;83.50;;;;;;5271632;28;20312;-33
2022/03/30 02:34:00;;;;;;;;;;;16.60;83.00;;;;;;5270363;28;19928;-33
2022/03/30 02:36:31;;;;;;;;;;;16.60;82.50;;;;;;5271353;28;19924;-35
2022/03/30 02:39:02;;;;;;;;;;;16.60;82.60;;;;;;5271502;28;19928;-33
2022/03/30 02:41:34;;;;;;;;;;;16.60;82.50;;;;;;5271279;28;19928;-32
2022/03/30 02:44:05;;;;;;;;;;;16.60;82.50;;;;;;5271123;28;20297;-35
2022/03/30 02:46:36;;;;;;;;;;;16.60;82.40;;;;;;5271366;28;19924;-31
2022/03/30 02:49:07;;;;;;;;;;;16.60;82.30;;;;;;5271362;28;20274;-36
2022/03/30 02:51:39;;;;;;;;;;;16.50;82.30;;;;;;5271259;28;20383;-35
2022/03/30 02:54:10;;;;;;;;;;;16.50;82.50;;;;;;5271093;28;20019;-38
2022/03/30 02:56:41;;;;;;;;;;;16.50;82.40;;;;;;5270743;28;19963;-35
2022/03/30 02:59:12;;;;;;;;;;;16.50;82.60;;;;;;5270820;28;19960;-32
2022/03/30 03:01:43;;;;;;;;;;;16.50;82.60;;;;;;5269548;28;20415;-35
2022/03/30 03:04:14;;;;;;;;;;;16.60;82.40;;;;;;5271325;28;19924;-34
2022/03/30 03:06:45;;;;;;;;;;;16.50;82.70;;;;;;5271176;28;19924;-33
2022/03/30 03:09:16;;;;;;;;;;;16.50;82.40;;;;;;5270767;28;19970;-34
2022/03/30 03:11:48;;;;;;;;;;;16.50;82.50;;;;;;5270770;28;19986;-36
2022/03/30 03:14:19;;;;;;;;;;;16.50;83.20;;;;;;5271436;28;19924;-32
2022/03/30 03:16:50;;;;;;;;;;;16.50;82.70;;;;;;5270320;28;19931;-31
2022/03/30 03:19:21;;;;;;;;;;;16.50;82.50;;;;;;5270706;28;20285;-31
2022/03/30 03:21:52;;;;;;;;;;;16.50;82.50;;;;;;5270499;28;20011;-35
2022/03/30 03:24:23;;;;;;;;;;;16.50;82.90;;;;;;5270625;28;20432;-33
2022/03/30 03:26:54;;;;;;;;;;;16.50;82.50;;;;;;5270373;28;20006;-33
2022/03/30 03:29:25;;;;;;;;;;;16.50;82.60;;;;;;5270700;28;20335;-35
2022/03/30 03:31:56;;;;;;;;;;;16.50;82.80;;;;;;5269970;28;19924;-31
2022/03/30 03:34:27;;;;;;;;;;;16.50;82.70;;;;;;5270684;28;19947;-34
2022/03/30 03:36:58;;;;;;;;;;;16.50;83.00;;;;;;5270318;28;20001;-32
2022/03/30 03:39:29;;;;;;;;;;;16.50;83.40;;;;;;5270171;28;19966;-33
2022/03/30 03:42:00;;;;;;;;;;;16.50;83.20;;;;;;5270427;28;19924;-33
2022/03/30 03:44:31;;;;;;;;;;;16.50;82.90;;;;;;5269091;28;20392;-33
2022/03/30 03:47:02;;;;;;;;;;;16.50;82.60;;;;;;5269698;28;20374;-40
2022/03/30 03:49:33;;;;;;;;;;;16.50;83.00;;;;;;5270972;28;20396;-35
2022/03/30 03:52:04;;;;;;;;;;;16.50;80.00;;;;;;5290911;28;20015;-31
2022/03/30 03:54:35;;;;;;;;;;;16.50;90.80;;;;;;5291152;28;20429;-36
2022/03/30 03:57:06;;;;;;;;;;;16.50;79.20;;;;;;5289741;28;19928;-33
2022/03/30 03:59:37;;;;;;;;;;;16.60;73.00;;;;;;5285913;28;20343;-33
2022/03/30 04:02:08;;;;;;;;;;;16.70;70.80;;;;;;5280586;28;19924;-30
2022/03/30 04:04:39;;;;;;;;;;;16.80;70.00;;;;;;5278894;28;20392;-33
2022/03/30 04:07:10;;;;;;;;;;;17.00;69.60;;;;;;5279922;28;19974;-32
2022/03/30 04:09:40;;;;;;;;;;;17.10;69.10;;;;;;5280324;28;19928;-38
2022/03/30 04:12:12;;;;;;;;;;;17.10;68.70;;;;;;5279969;28;19931;-34
2022/03/30 04:14:42;;;;;;;;;;;17.20;68.70;;;;;;5287839;28;19928;-37
2022/03/30 04:17:13;;;;;;;;;;;17.00;69.80;;;;;;5290709;28;19927;-31
2022/03/30 04:19:44;;;;;;;;;;;16.50;70.30;;;;;;5290759;28;19924;-32
2022/03/30 04:22:15;;;;;;;;;;;16.20;70.60;;;;;;5290868;28;19977;-33
2022/03/30 04:24:46;;;;;;;;;;;15.90;71.10;;;;;;5289994;28;20426;-36
2022/03/30 04:27:17;;;;;;;;;;;15.70;71.60;;;;;;5290942;28;20353;-31
2022/03/30 04:29:48;;;;;;;;;;;15.50;71.90;;;;;;5290905;28;19965;-33
2022/03/30 04:32:19;;;;;;;13.80;10.43;;;15.40;72.20;;;;;;5290464;28;19931;-37
2022/03/30 04:34:50;;;;;;;23.40;15.90;;;15.20;72.70;;;;;;5290514;28;20075;-31
2022/03/30 04:37:21;;;;;;;21.60;15.60;;;15.10;73.20;;;;;;5289601;28;20078;-31
2022/03/30 04:39:52;;;;;;;15.53;11.37;;;15.00;72.70;;;;;;5289108;28;20126;-32
2022/03/30 04:42:23;;;;;;;14.97;10.47;;;14.90;72.90;;;;;;5290135;28;20062;-34
2022/03/30 04:44:54;;;;;;;16.63;12.53;;;14.90;73.20;;;;;;5292316;28;20044;-33
2022/03/30 04:47:26;;;;;;;16.10;10.87;;;14.80;73.30;;;;;;5294503;28;20135;-32
2022/03/30 04:49:57;;;;;;;14.57;10.53;;;14.70;73.20;;;;;;5294183;28;20044;-35
2022/03/30 04:52:29;;;;;;;13.33;10.23;;;14.70;73.50;;;;;;5294146;28;20122;-34
2022/03/30 04:54:59;;;;;;;11.43;8.77;;;14.60;73.70;;;;;;5294010;28;20055;-34
2022/03/30 04:57:31;;;;;;;12.10;8.77;;;14.60;73.80;;;;;;5292564;28;20122;-33
2022/03/30 05:00:03;;;;;;;11.03;8.23;;;14.60;73.10;;;;;;5294099;28;20054;-33
2022/03/30 05:02:34;;;;;;;;;;;14.70;73.00;;;;;;5294825;27;20408;-36
2022/03/30 05:05:06;;;;;;;;;;;15.00;77.10;;;;;;5294462;28;19973;-38
2022/03/30 05:07:37;;;;;;;;;;;15.30;78.10;;;;;;5294325;28;19920;-33
2022/03/30 05:10:12;;;;;;;;;;;15.60;78.20;;;;;;5294258;28;19926;-32
2022/03/30 05:12:43;;;;;;;;;;;15.90;78.70;;;;;;5293503;28;19923;-32
2022/03/30 05:15:14;;;;;;;;;;;16.20;79.20;;;;;;5294316;28;20006;-32
2022/03/30 05:17:45;;;;;;;;;;;16.40;79.90;;;;;;5294532;28;19964;-31
2022/03/30 05:20:16;;;;;;;;;;;16.70;80.50;;;;;;5294058;28;20264;-34
2022/03/30 05:22:47;;;;;;;;;;;16.90;81.00;;;;;;5294249;28;19942;-37
2022/03/30 05:25:21;;;;;;;;;;;17.00;81.50;;;;;;5294123;28;19919;-29
2022/03/30 05:27:52;;;;;;;;;;;17.20;81.80;;;;;;5294082;28;19924;-32
2022/03/30 05:30:23;;;;;;;;;;;17.30;81.30;;;;;;5286902;28;20361;-32
2022/03/30 05:32:54;;;;;;;;;;;17.40;81.80;;;;;;5277324;28;19923;-33
2022/03/30 05:35:25;;;;;;;;;;;17.30;70.00;;;;;;5282812;28;19923;-34
2022/03/30 05:37:56;;;;;;;18.73;16.10;;;16.80;70.10;;;;;;5275234;28;20021;-34
2022/03/30 05:40:27;;;;;;;25.70;21.77;;;16.40;70.40;;;;;;5281230;28;20478;-33
2022/03/30 05:42:58;;;;;;;24.03;19.60;;;16.10;71.20;;;;;;5281643;28;20074;-32
2022/03/30 05:45:29;;;;;;;24.87;19.43;;;15.90;71.60;;;;;;5271685;28;20080;-33
2022/03/30 05:48:01;;;;;;;25.03;18.43;;;15.70;74.10;;;;;;5273054;28;20432;-32
2022/03/30 05:50:32;;;;;;;21.40;15.07;;;15.70;77.40;;;;;;5289480;28;20039;-34
2022/03/30 05:53:03;;;;;;;20.60;15.07;;;15.60;76.70;;;;;;5282318;28;20498;-37
2022/03/30 05:55:34;;;;;;;17.70;12.57;;;15.50;73.00;;;;;;5275254;28;20048;-37
2022/03/30 05:58:05;;;;;;;14.60;10.33;;;15.30;73.00;;;;;;5282454;28;20051;-30
2022/03/30 06:00:36;;;;;;;14.93;10.53;;;15.20;72.90;;;;;;5280950;28;20417;-35
2022/03/30 06:03:10;;;;;;;16.40;11.23;;;15.10;73.30;;;;;;5275698;28;20100;-30
2022/03/30 06:05:41;;;;;;;13.70;9.40;;;15.00;73.90;;;;;;5276780;28;20047;-34
2022/03/30 06:08:13;;;;;;;10.97;7.30;;;15.00;74.60;;;;;;5273028;28;20767;-33
2022/03/30 06:10:44;;;;;;;10.37;7.30;;;15.00;74.00;;;;;;5271152;28;20052;-32
2022/03/30 06:13:15;;;;;;;9.57;7.07;;;14.90;74.00;;;;;;5280322;28;20046;-31
2022/03/30 06:15:45;;;;;;;8.97;6.90;;;14.90;74.30;;;;;;5273928;28;20052;-30
2022/03/30 06:18:16;;;;;;;8.53;5.80;;;14.90;74.40;;;;;;5275068;28;20036;-32
2022/03/30 06:20:47;;;;;;;7.13;5.07;;;14.80;74.50;;;;;;5275669;28;20047;-33
2022/03/30 06:23:18;;;;;;;7.23;5.77;;;14.70;74.70;;;;;;5278833;28;20127;-32
2022/03/30 06:25:50;;;;;;;9.33;6.00;;;14.70;74.80;;;;;;5274956;28;20127;-35
2022/03/30 06:28:24;;;;;;;8.33;5.57;;;14.70;74.60;;;;;;5276342;28;20556;-34
2022/03/30 06:30:59;;;;;;;7.90;4.80;;;14.60;74.70;;;;;;5265677;28;20450;-34
2022/03/30 06:33:30;;;;;;;7.17;5.10;;;14.60;75.00;;;;;;5240841;28;20045;-34
2022/03/30 06:36:01;;;;;;;8.40;5.33;;;14.60;75.00;;;;;;5289547;28;20134;-35
2022/03/30 06:38:32;;;;;;;8.77;4.90;;;14.60;75.00;;;;;;5289832;28;20581;-32
2022/03/30 06:41:04;;;;;;;7.47;4.73;;;14.50;75.20;;;;;;5290263;28;20047;-35
2022/03/30 06:43:42;;;;;;;5.57;4.03;;;14.50;75.20;;;;;;5289745;28;20048;-33
2022/03/30 06:46:14;;;;;;;6.17;3.97;;;14.50;75.40;;;;;;5273844;28;20646;-35
2022/03/30 06:48:45;;;;;;;6.80;3.73;;;14.50;75.00;;;;;;5289352;28;20043;-34
2022/03/30 06:51:16;;;;;;;5.97;3.77;;;14.50;74.60;;;;;;5289294;28;20152;-34
2022/03/30 06:53:47;;;;;;;6.03;3.80;;;14.70;75.10;;;;;;5289654;28;20555;-33
2022/03/30 06:56:18;;;;;;;5.87;3.40;;;14.90;75.40;;;;;;5289124;28;20040;-34
2022/03/30 06:58:50;;;;;;;7.17;4.27;;;15.20;74.40;;;;;;5268720;28;20109;-35
2022/03/30 07:01:21;;;;;;;8.67;4.50;;;15.40;74.20;;;;;;5270066;28;20052;-34
2022/03/30 07:03:55;;;;;;;8.20;4.65;;;15.60;74.10;;;;;;5271048;28;20142;-31
2022/03/30 07:06:27;;;;;;;;;;;15.80;74.50;;;;;;5270196;28;20044;-34
2022/03/30 07:11:47;;;;;;;;;;;16.00;73.40;;;;;;5270708;28;19924;-33
2022/03/30 07:14:18;;;;;;;;;;;16.10;73.50;;;;;;5270684;28;20365;-33
2022/03/30 07:16:50;;;;;;;;;;;16.20;73.10;;;;;;5270638;28;20352;-32
2022/03/30 07:19:21;;;;;;;;;;;16.30;73.40;;;;;;5270918;28;20370;-35
2022/03/30 07:21:53;;;;;;;;;;;16.40;72.90;;;;;;5271036;28;20027;-33
2022/03/30 07:24:24;;;;;;;;;;;16.40;73.20;;;;;;5270300;28;19920;-31
2022/03/30 07:26:55;;;;;;;;;;;16.50;76.00;;;;;;5270756;28;19920;-34
2022/03/30 07:29:26;;;;;;;;;;;16.50;73.30;;;;;;5270186;28;19973;-32
2022/03/30 07:31:57;;;;;;;;;;;16.50;73.30;;;;;;5270330;28;19947;-35
2022/03/30 07:34:33;;;;;;;;;;;16.60;72.70;;;;;;5271012;28;19970;-35
2022/03/30 07:37:04;;;;;;;;;;;16.60;77.70;;;;;;5270222;28;20026;-34
2022/03/30 07:39:35;;;;;;;;;;;16.60;78.80;;;;;;5270318;28;19920;-34
2022/03/30 07:42:06;;;;;;;;;;;16.60;80.60;;;;;;5270100;28;20384;-33
2022/03/30 07:44:37;;;;;;;;;;;16.70;79.40;;;;;;5270256;28;19920;-33
2022/03/30 07:47:08;;;;;;;;;;;16.70;77.00;;;;;;5252132;28;20308;-38
2022/03/30 07:49:39;;;;;;;;;;;16.70;76.20;;;;;;5270165;28;19920;-33
2022/03/30 07:52:10;;;;;;;;;;;16.80;76.80;;;;;;5269856;28;20361;-38
2022/03/30 07:54:41;;;;;;;;;;;16.80;76.70;;;;;;5269853;28;19927;-32
2022/03/30 07:57:12;;;;;;;;;;;16.80;76.80;;;;;;5268949;28;19927;-31
2022/03/30 07:59:43;;;;;;;;;;;16.80;76.20;;;;;;5270325;28;20472;-33
2022/03/30 08:02:15;;;;;;;;;;;16.90;75.50;;;;;;5269936;28;20014;-40
2022/03/30 08:04:47;;;;;;;;;;;16.90;74.00;;;;;;5269775;28;19944;-32
2022/03/30 08:07:18;;;;;;;;;;;16.80;73.90;;;;;;5269845;28;19923;-35
2022/03/30 08:09:50;;;;;;;;;;;16.90;78.00;;;;;;5270045;28;20358;-33
2022/03/30 08:12:21;;;;;;;;;;;16.90;76.80;;;;;;5268771;28;19927;-31
2022/03/30 08:14:54;;;;;;;;;;;16.90;73.50;;;;;;5234362;28;19920;-32
2022/03/30 08:17:24;;;;;;;;;;;16.90;77.00;;;;;;5270859;28;20326;-39
2022/03/30 08:19:57;;;;;;;;;;;17.00;78.70;;;;;;5274223;28;20288;-29
2022/03/30 08:22:28;;;;;;;;;;;17.00;82.90;;;;;;5274216;28;20289;-32
2022/03/30 08:25:01;;;;;;;;;;;17.10;80.00;;;;;;5273886;28;19927;-31
2022/03/30 08:27:34;;;;;;;;;;;17.10;78.90;;;;;;5273855;28;19920;-35
2022/03/30 08:30:07;;;;;;;;;;;17.20;84.70;;;;;;5289544;28;19920;-34
2022/03/30 08:32:44;;;;;;;;;;;17.20;83.60;;;;;;5272215;28;19923;-32
2022/03/30 08:35:17;;;;;;;;;;;17.30;79.90;;;;;;5273716;28;19920;-35
2022/03/30 08:37:52;;;;;;;;;;;17.30;80.00;;;;;;5288158;28;19923;-34
2022/03/30 08:40:35;;;;;;;;;;;17.30;79.80;;;;;;5274453;28;19927;-30
2022/03/30 08:43:16;;;;;;;;;;;17.30;86.50;;;;;;5273773;28;19920;-29
2022/03/30 08:45:47;;;;;;;;;;;17.30;87.90;;;;;;5273774;28;20320;-38
2022/03/30 08:48:18;;;;;;;;;;;17.30;89.80;;;;;;5273508;28;19965;-35
2022/03/30 08:50:50;;;;;;;;;;;17.30;83.30;;;;;;5272382;28;19920;-39
2022/03/30 08:53:21;;;;;;;;;;;17.20;82.70;;;;;;5273611;28;19945;-33
2022/03/30 08:55:52;;;;;;;;;;;17.20;82.70;;;;;;5273854;28;19998;-33
2022/03/30 08:58:25;;;;;;;;;;;17.20;82.70;;;;;;5272228;28;20041;-35
2022/03/30 09:01:08;;;;;;;;;;;17.20;83.10;;;;;;5272845;28;19920;-34
2022/03/30 09:03:57;;;;;;;;;;;17.30;86.60;;;;;;5272922;28;19950;-33
2022/03/30 09:06:35;;;;;;;;;;;17.30;81.70;;;;;;5270671;28;20369;-32
2022/03/30 09:09:06;;;;;;;;;;;17.30;81.70;;;;;;5271723;28;19920;-32
2022/03/30 09:11:40;;;;;;;;;;;17.40;86.60;;;;;;5271938;28;20331;-31
2022/03/30 09:14:12;;;;;;;;;;;17.40;79.80;;;;;;5272877;28;20373;-29
2022/03/30 09:16:44;;;;;;;;;;;17.40;79.10;;;;;;5272454;28;19920;-33
2022/03/30 09:19:16;;;;;;;;;;;17.50;83.00;;;;;;5272642;28;20426;-33
2022/03/30 09:21:48;;;;;;;;;;;17.50;83.20;;;;;;5272430;28;19959;-34
2022/03/30 09:24:20;;;;;;;;;;;17.40;83.10;;;;;;5272321;28;20316;-34
2022/03/30 09:26:51;;;;;;;;;;;17.30;82.20;;;;;;5272941;28;19935;-34
2022/03/30 09:29:22;;;;;;;;;;;17.30;82.50;;;;;;5270429;28;20368;-30
2022/03/30 09:31:54;;;;;;;;;;;17.30;78.80;;;;;;5272198;28;19963;-32
2022/03/30 09:34:26;;;;;;;;;;;17.30;82.70;;;;;;5272103;28;19920;-34
2022/03/30 09:36:59;;;;;;;;;;;17.40;89.10;;;;;;5270845;28;19949;-30
2022/03/30 09:39:34;;;;;;;;;;;17.30;83.60;;;;;;5272412;28;19927;-30
2022/03/30 09:42:05;;;;;;;;;;;17.40;82.70;;;;;;5270704;28;19920;-34
2022/03/30 09:44:46;;;;;;;;;;;17.50;83.10;;;;;;5271962;28;20030;-33
2022/03/30 09:47:18;;;;;;;;;;;17.50;88.90;;;;;;5271804;28;19924;-32
2022/03/30 09:49:49;;;;;;;;;;;17.50;89.80;;;;;;5273003;28;20354;-33
2022/03/30 09:52:20;;;;;;;;;;;17.50;83.10;;;;;;5283667;28;19924;-38
2022/03/30 09:54:51;;;;;;;;;;;17.50;83.40;;;;;;5290589;28;19920;-33
2022/03/30 09:57:24;;;;;;;;;;;17.50;83.00;;;;;;5278343;28;19924;-36
2022/03/30 09:59:59;;;;;;;;;;;17.50;91.40;;;;;;5288929;28;19930;-31
2022/03/30 10:02:30;;;;;;;;;;;17.50;87.00;;;;;;5290713;28;19962;-36
2022/03/30 10:05:01;;;;;;;;;;;17.40;92.40;;;;;;5290219;27;19927;-36
2022/03/30 10:07:32;;;;;;;;;;;17.40;84.90;;;;;;5290598;28;19966;-30
2022/03/30 10:10:04;;;;;;;;;;;17.40;90.20;;;;;;5289141;28;20441;-35
2022/03/30 10:12:35;;;;;;;;;;;17.30;92.50;;;;;;5290368;28;19934;-33
2022/03/30 10:15:06;;;;;;;;;;;17.30;86.80;;;;;;5289153;28;19924;-33
2022/03/30 10:17:37;;;;;;;;;;;17.30;85.20;;;;;;5290319;28;19927;-30
2022/03/30 10:20:08;;;;;;;;;;;17.30;89.80;;;;;;5289962;28;19920;-37
2022/03/30 10:22:58;;;;;;;;;;;17.30;84.00;;;;;;5288530;28;19990;-33
2022/03/30 10:25:48;;;;;;;;;;;17.30;85.20;;;;;;5290074;28;19952;-34
2022/03/30 10:28:23;;;;;;;;;;;17.20;89.30;;;;;;5290170;27;19919;-34
2022/03/30 10:30:57;;;;;;;;;;;17.20;84.70;;;;;;5289605;28;19919;-29
2022/03/30 10:33:29;;;;;;;;;;;17.30;89.00;;;;;;5288645;28;20418;-33
2022/03/30 10:36:18;;;;;;;;;;;17.30;90.60;;;;;;5269180;28;19924;-32
2022/03/30 10:39:07;;;;;;;;;;;17.30;89.30;;;;;;5286355;28;19920;-33
2022/03/30 10:42:05;;;;;;;;;;;17.20;90.00;;;;;;5288747;27;19919;-32
2022/03/30 10:44:36;;;;;;;;;;;17.20;86.40;;;;;;5287525;28;19924;-32
2022/03/30 10:47:14;;;;;;;;;;;17.20;85.50;;;;;;5289489;28;19924;-33
2022/03/30 10:49:50;;;;;;;;;;;17.10;88.10;;;;;;5280031;28;19924;-34
2022/03/30 10:52:49;;;;;;;;;;;17.10;77.20;;;;;;5283709;28;20046;-33
2022/03/30 10:55:26;;;;;;;;;;;17.00;74.50;;;;;;5287672;28;19923;-32
2022/03/30 10:58:01;;;;;;;3.22;1.50;;;17.00;73.60;;;;;;5273183;28;19920;-32
2022/03/30 11:00:38;;;;;;;3.45;1.60;;;17.00;78.00;;;;;;5289345;28;20055;-32
2022/03/30 11:03:09;;;;;;;2.40;1.60;;;17.00;85.00;;;;;;5289166;28;20047;-37
2022/03/30 11:05:46;;;;;;;4.28;1.70;;;17.00;83.80;;;;;;5287993;28;20123;-37
2022/03/30 11:08:31;;;;;;;2.97;1.92;;;17.00;85.40;;;;;;5288821;28;20044;-33
2022/03/30 11:11:03;;;;;;;3.17;1.77;;;17.00;85.50;;;;;;5289191;28;20055;-33
2022/03/30 11:13:34;;;;;;;2.63;1.50;;;17.00;81.30;;;;;;5288871;28;20100;-33
2022/03/30 11:16:11;;;;;;;3.45;2.20;;;17.00;81.30;;;;;;5287801;28;20043;-31
2022/03/30 11:18:59;;;;;;;4.15;1.98;;;16.90;85.10;;;;;;5282869;28;20159;-35
2022/03/30 11:21:31;;;;;;;4.68;1.98;;;16.90;83.70;;;;;;5282028;28;20043;-31
2022/03/30 11:24:23;;;;;;;3.17;1.70;;;16.90;87.90;;;;;;5274124;28;20097;-34
2022/03/30 11:27:03;;;;;;;3.05;1.70;;;16.90;88.40;;;;;;5288677;28;20489;-35
2022/03/30 11:29:54;;;;;;;3.85;2.13;;;16.90;82.90;;;;;;5288396;28;20549;-30
2022/03/30 11:32:43;;;;;;;;;;;16.80;77.90;;;;;;5289080;28;20074;-32
2022/03/30 11:35:17;;;;;;;;;;;16.80;80.90;;;;;;5289060;28;20399;-32
2022/03/30 11:37:49;;;;;;;;;;;16.80;74.90;;;;;;5270640;28;19946;-35
2022/03/30 11:40:20;;;;;;;;;;;16.80;76.90;;;;;;5288913;28;19927;-34
2022/03/30 11:42:52;;;;;;;;;;;16.90;81.00;;;;;;5289082;28;20258;-31
2022/03/30 11:45:24;;;;;;;;;;;16.80;76.70;;;;;;5288811;28;20014;-35
2022/03/30 11:48:06;;;;;;;;;;;16.80;79.70;;;;;;5288645;28;20028;-35
2022/03/30 11:50:43;;;;;;;;;;;16.80;78.90;;;;;;5287733;28;19958;-37
2022/03/30 11:53:15;;;;;;;;;;;16.80;77.10;;;;;;5288594;28;20366;-33
2022/03/30 11:55:50;;;;;;;;;;;16.80;69.80;;;;;;5284605;28;21906;-40
2022/03/30 11:58:30;;;;;;;;;;;16.80;68.40;;;;;;5273728;28;20045;-32
2022/03/30 12:01:03;;;;;;;;;;;16.80;68.30;;;;;;5288578;28;20446;-33
2022/03/30 12:03:36;;;;;;;;;;;16.70;71.40;;;;;;5288192;28;20194;-33
2022/03/30 12:06:07;;;;;;;;;;;16.70;71.10;;;;;;5288655;28;19927;-34
2022/03/30 12:08:42;;;;;;;;;;;16.70;66.40;;;;;;5288544;28;19930;-30
2022/03/30 12:11:13;;;;;;;;;;;16.70;70.20;;;;;;5288891;28;19954;-35
2022/03/30 12:14:01;;;;;;;;;;;16.70;67.00;;;;;;5287341;28;19928;-33
2022/03/30 12:16:38;;;;;;;;;;;16.80;70.30;;;;;;5288331;28;19934;-33
2022/03/30 12:19:15;;;;;;;;;;;16.70;69.70;;;;;;5288924;28;19959;-37
2022/03/30 12:21:46;;;;;;;;;;;16.70;70.20;;;;;;5288387;28;19975;-34
2022/03/30 12:24:22;;;;;;;;;;;16.70;70.70;;;;;;5288466;28;20017;-35
2022/03/30 12:26:55;;;;;;;;;;;16.70;69.10;;;;;;5288499;28;20343;-32
2022/03/30 12:29:29;;;;;;;;;;;16.80;74.70;;;;;;5285716;28;20030;-38
2022/03/30 12:32:01;;;;;;;;;;;16.70;72.50;;;;;;5285796;28;20010;-34
2022/03/30 12:34:34;;;;;;;;;;;16.70;74.30;;;;;;5287682;28;20085;-31
2022/03/30 12:37:06;;;;;;;;;;;16.80;80.10;;;;;;5288377;28;19969;-35
2022/03/30 12:39:39;;;;;;;;;;;16.80;80.40;;;;;;5288568;28;19955;-35
2022/03/30 12:42:14;;;;;;;;;;;16.80;84.70;;;;;;5287973;28;19923;-36
2022/03/30 12:44:54;;;;;;;;;;;16.80;82.50;;;;;;5288365;28;19924;-35
2022/03/30 12:47:26;;;;;;;;;;;16.80;80.60;;;;;;5288398;28;19954;-33
2022/03/30 12:49:58;;;;;;;;;;;16.80;79.50;;;;;;5288035;28;19931;-40
2022/03/30 12:52:32;;;;;;;;;;;16.90;76.70;;;;;;5287809;28;19959;-35
2022/03/30 12:55:13;;;;;;;;;;;16.80;78.80;;;;;;5288176;28;19927;-33
2022/03/30 12:57:54;;;;;;;;;;;16.80;77.10;;;;;;5271197;28;19951;-33
2022/03/30 13:00:28;;;;;;;;;;;16.80;74.10;;;;;;5289209;28;19924;-30
2022/03/30 13:03:03;;;;;;;;;;;16.80;71.80;;;;;;5289965;28;19923;-32
2022/03/30 13:05:34;;;;;;;;;;;16.90;76.60;;;;;;5291659;28;19928;-33
2022/03/30 13:08:11;;;;;;;;;;;16.90;76.20;;;;;;5293919;28;19931;-32
2022/03/30 13:11:00;;;;;;;;;;;16.90;74.00;;;;;;5293927;28;19924;-31
2022/03/30 13:13:40;;;;;;;;;;;16.90;72.00;;;;;;5275758;28;19978;-36
2022/03/30 13:16:12;;;;;;;;;;;17.00;79.50;;;;;;5294121;28;19951;-36
2022/03/30 13:18:43;;;;;;;;;;;16.90;71.90;;;;;;5293965;28;19976;-36
2022/03/30 13:21:15;;;;;;;;;;;16.90;67.90;;;;;;5293978;28;19927;-37
2022/03/30 13:23:50;;;;;;;;;;;16.90;66.50;;;;;;5293464;28;19931;-33
2022/03/30 13:26:28;;;;;;;;;;;16.90;65.80;;;;;;5294527;28;20018;-31
2022/03/30 13:28:59;;;;;;;;;;;16.90;65.40;;;;;;5294265;28;20406;-32
2022/03/30 13:31:30;;;;;;;;;;;16.90;65.10;;;;;;5292403;28;19924;-34
2022/03/30 13:34:02;;;;;;;;;;;16.80;64.90;;;;;;5293345;28;19924;-30
2022/03/30 13:36:33;;;;;;;;;;;16.90;64.70;;;;;;5293605;28;19923;-31
2022/03/30 13:39:04;;;;;;;;;;;16.90;64.50;;;;;;5293750;28;19927;-37
2022/03/30 13:41:35;;;;;;;;;;;16.90;65.30;;;;;;5293342;28;20369;-31
2022/03/30 13:44:06;;;;;;;;;;;16.80;65.30;;;;;;5291637;28;19931;-35
2022/03/30 13:46:37;;;;;;;;;;;16.80;65.50;;;;;;5293376;28;19923;-35
2022/03/30 13:49:08;;;;;;;;;;;16.80;65.70;;;;;;5293237;28;19930;-35
2022/03/30 13:51:38;;;;;;;;;;;16.80;65.80;;;;;;5290995;28;19923;-31
2022/03/30 13:54:10;;;;;;;;;;;16.80;66.30;;;;;;5281478;28;19932;-33
2022/03/30 13:56:41;;;;;;;;;;;16.90;71.90;;;;;;5290293;28;19930;-36
2022/03/30 13:59:12;;;;;;;;;;;16.90;69.90;;;;;;5292919;28;20376;-37
2022/03/30 14:01:43;;;;;;;;;;;16.90;67.50;;;;;;5292731;28;19931;-36
2022/03/30 14:04:14;;;;;;;;;;;17.00;69.00;;;;;;5291965;28;19935;-31
2022/03/30 14:06:45;;;;;;;;;;;17.10;77.60;;;;;;5292280;28;19924;-33
2022/03/30 14:09:16;;;;;;;;;;;17.20;73.90;;;;;;5293090;28;19968;-32
2022/03/30 14:11:47;;;;;;;;;;;17.10;73.90;;;;;;5292571;28;19924;-32
2022/03/30 14:14:18;;;;;;;;;;;17.00;74.50;;;;;;5291635;28;19955;-32
2022/03/30 14:16:49;;;;;;;;;;;17.00;73.90;;;;;;5292716;28;20014;-36
2022/03/30 14:19:20;;;;;;;;;;;17.00;77.30;;;;;;5292735;28;20333;-30
2022/03/30 14:21:51;;;;;;;;;;;17.00;80.00;;;;;;5292620;28;20284;-32
2022/03/30 14:24:24;;;;;;;;;;;16.90;76.70;;;;;;5290972;28;19924;-33
2022/03/30 14:26:54;;;;;;;;;;;16.90;74.00;;;;;;5292810;28;19924;-32
2022/03/30 14:29:26;;;;;;;;;;;16.90;79.10;;;;;;5292578;27;19931;-32
2022/03/30 14:31:56;;;;;;;;;;;16.90;81.90;;;;;;5293088;28;20322;-33
2022/03/30 14:34:27;;;;;;;;;;;16.90;78.30;;;;;;5292334;28;19931;-35
2022/03/30 14:36:58;;;;;;;;;;;16.80;77.60;;;;;;5292330;28;19924;-33